Time;durP1;ratioP1;P1;durP2;ratioP2;P2;SDS_P1;SDS_P2;PMS_P1;PMS_P2;Temp;Humidity;BMP_temperature;BMP_pressure;BME280_temperature;BME280_humidity;BME280_pressure;Samples;Min_cycle;Max_cycle;Signal;HPM_P1;HPM_P2
2023/07/04 00:01:19;;;;;;;13.50;5.97;;;;;;;19.25;100.00;98538.63;4484615;31;20497;-64
2023/07/04 00:03:50;;;;;;;13.43;7.35;;;;;;;19.23;100.00;98540.63;4484358;32;20117;-64
2023/07/04 00:06:18;;;;;;;15.88;6.87;;;;;;;19.29;100.00;98545.19;4484420;31;20189;-64
2023/07/04 00:08:45;;;;;;;14.45;7.75;;;;;;;19.23;100.00;98543.28;4484243;31;20089;-64
2023/07/04 00:11:12;;;;;;;15.48;7.20;;;;;;;19.23;100.00;98538.81;4484290;31;20112;-64
2023/07/04 00:13:41;;;;;;;14.90;7.62;;;;;;;19.17;100.00;98533.47;4484142;31;20538;-64
2023/07/04 00:16:11;;;;;;;12.60;6.65;;;;;;;19.18;100.00;98535.91;4484116;31;20101;-64
2023/07/04 00:18:39;;;;;;;12.13;6.57;;;;;;;19.16;100.00;98532.66;4484250;31;20088;-64
2023/07/04 00:21:14;;;;;;;13.70;6.45;;;;;;;19.13;100.00;98531.22;4484546;31;20126;-64
2023/07/04 00:23:46;;;;;;;10.98;6.07;;;;;;;19.13;100.00;98530.41;4485654;32;20123;-64
2023/07/04 00:26:17;;;;;;;9.93;4.82;;;;;;;19.19;100.00;98531.44;4486172;31;20088;-65
2023/07/04 00:28:45;;;;;;;9.05;5.25;;;;;;;19.21;100.00;98538.19;4486112;31;20092;-65
2023/07/04 00:31:14;;;;;;;9.70;5.28;;;;;;;19.26;100.00;98537.59;4486306;31;20119;-64
2023/07/04 00:33:42;;;;;;;9.20;5.40;;;;;;;19.31;100.00;98540.47;4486022;31;20172;-64
2023/07/04 00:36:12;;;;;;;8.80;5.45;;;;;;;19.30;100.00;98541.47;4484843;32;20144;-64
2023/07/04 00:38:41;;;;;;;13.43;5.55;;;;;;;19.28;100.00;98547.00;4486084;31;20441;-64
2023/07/04 00:41:28;;;;;;;11.65;4.90;;;;;;;19.27;100.00;98539.22;4485900;32;20084;-64
2023/07/04 00:44:09;;;;;;;10.80;5.30;;;;;;;19.26;100.00;98543.72;4486167;31;20116;-64
2023/07/04 00:47:01;;;;;;;7.45;4.55;;;;;;;19.26;100.00;98538.41;4485901;31;20107;-64
2023/07/04 00:49:43;;;;;;;7.50;4.47;;;;;;;19.28;100.00;98539.03;4485737;31;20175;-65
2023/07/04 00:52:24;;;;;;;8.32;4.30;;;;;;;19.28;100.00;98540.88;4484881;32;20122;-64
2023/07/04 00:54:57;;;;;;;9.65;5.28;;;;;;;19.27;100.00;98534.75;4484778;32;20097;-64
2023/07/04 00:57:31;;;;;;;8.18;4.55;;;;;;;19.23;100.00;98530.00;4484820;32;20514;-64
2023/07/04 01:00:05;;;;;;;;;;;;;;;19.22;100.00;98529.19;4486316;32;20687;-64
2023/07/04 01:02:35;;;;;;;9.18;4.65;;;;;;;19.23;100.00;98532.66;4486378;31;20026;-64
2023/07/04 01:05:03;;;;;;;10.20;5.07;;;;;;;19.21;100.00;98538.19;4486015;31;20153;-64
2023/07/04 01:08:06;;;;;;;7.95;4.80;;;;;;;19.25;100.00;98535.97;4484989;32;20146;-64
2023/07/04 01:10:37;;;;;;;10.70;5.18;;;;;;;19.25;100.00;98533.31;4421033;32;20097;-64
2023/07/04 01:13:06;;;;;;;7.87;4.72;;;;;;;19.29;100.00;98535.38;4408629;32;20152;-64
2023/07/04 01:15:33;;;;;;;8.57;4.72;;;;;;;19.33;100.00;98528.66;4421097;32;20102;-64
2023/07/04 01:18:01;;;;;;;9.25;4.60;;;;;;;19.39;100.00;98536.81;4421252;32;20225;-64
2023/07/04 01:20:28;;;;;;;7.72;4.75;;;;;;;19.46;100.00;98535.00;4420981;32;20110;-64
2023/07/04 01:23:18;;;;;;;8.52;5.15;;;;;;;19.54;100.00;98529.50;4409005;32;20133;-64
2023/07/04 01:26:09;;;;;;;7.40;4.00;;;;;;;19.71;100.00;98540.56;4408618;32;20538;-64
2023/07/04 01:28:37;;;;;;;7.90;4.97;;;;;;;19.62;100.00;98547.09;4421226;32;20105;-64
2023/07/04 01:31:05;;;;;;;7.75;4.80;;;;;;;19.64;100.00;98553.84;4408848;32;20129;-64
2023/07/04 01:33:32;;;;;;;9.68;4.65;;;;;;;19.79;100.00;98559.03;4420804;32;20570;-64
2023/07/04 01:36:01;;;;;;;10.45;5.03;;;;;;;19.71;100.00;98559.16;4421058;32;20114;-64
2023/07/04 01:38:30;;;;;;;10.10;5.18;;;;;;;19.65;100.00;98562.63;4421368;32;20093;-64
2023/07/04 01:40:58;;;;;;;8.27;4.70;;;;;;;19.63;100.00;98565.50;4421179;32;20125;-64
2023/07/04 01:43:25;;;;;;;8.32;4.72;;;;;;;19.63;100.00;98562.84;4421176;32;20372;-64
2023/07/04 01:45:54;;;;;;;9.05;5.20;;;;;;;19.61;100.00;98558.75;4409738;32;20589;-64
2023/07/04 01:48:21;;;;;;;10.77;5.28;;;;;;;19.55;100.00;98572.84;4485567;31;20096;-64
2023/07/04 01:50:48;;;;;;;13.98;5.78;;;;;;;19.52;100.00;98575.91;4485622;31;20529;-64
2023/07/04 01:53:16;;;;;;;14.05;5.28;;;;;;;19.44;100.00;98580.38;4485518;32;20403;-64
2023/07/04 01:55:44;;;;;;;13.88;5.70;;;;;;;19.30;100.00;98587.47;4485519;32;20104;-64
2023/07/04 01:58:11;;;;;;;11.73;5.90;;;;;;;19.18;100.00;98597.00;4485447;31;20114;-64
2023/07/04 02:00:38;;;;;;;13.18;6.70;;;;;;;19.10;100.00;98610.44;4485545;32;20104;-64
2023/07/04 02:03:06;;;;;;;12.18;6.15;;;;;;;18.97;100.00;98609.38;4485556;32;20115;-64
2023/07/04 02:05:34;;;;;;;10.35;6.28;;;;;;;18.97;100.00;98614.69;4484136;32;20112;-64
2023/07/04 02:08:03;;;;;;;14.15;7.37;;;;;;;18.98;100.00;98615.47;4485589;31;20096;-64
2023/07/04 02:10:30;;;;;;;12.73;7.00;;;;;;;18.97;100.00;98627.94;4485330;31;20096;-64
2023/07/04 02:12:57;;;;;;;14.80;6.57;;;;;;;18.90;100.00;98627.06;4485390;31;20088;-64
2023/07/04 02:15:25;;;;;;;14.48;7.62;;;;;;;18.87;100.00;98637.28;4485417;32;20093;-64
2023/07/04 02:17:52;;;;;;;16.10;7.68;;;;;;;18.82;100.00;98635.19;4485208;31;20112;-64
2023/07/04 02:20:20;;;;;;;15.00;7.37;;;;;;;18.83;100.00;98636.78;4485334;32;20430;-64
2023/07/04 02:22:49;;;;;;;13.32;7.45;;;;;;;18.79;100.00;98649.66;4485305;31;20594;-64
2023/07/04 02:25:16;;;;;;;15.73;7.47;;;;;;;18.84;100.00;98650.91;4485310;31;20085;-64
2023/07/04 02:27:43;;;;;;;16.45;8.00;;;;;;;18.82;100.00;98656.41;4485223;32;20088;-64
2023/07/04 02:30:11;;;;;;;13.50;7.57;;;;;;;18.73;100.00;98658.38;4485150;32;20183;-64
2023/07/04 02:32:38;;;;;;;15.63;7.62;;;;;;;18.75;100.00;98655.53;4485245;32;20096;-64
2023/07/04 02:35:06;;;;;;;14.60;8.07;;;;;;;18.65;100.00;98665.66;4485464;31;20735;-64
2023/07/04 02:37:34;;;;;;;14.30;7.43;;;;;;;18.58;100.00;98669.06;4485431;32;20096;-64
2023/07/04 02:40:02;;;;;;;21.80;8.15;;;;;;;18.44;100.00;98672.63;4485311;32;20155;-64
2023/07/04 02:42:29;;;;;;;13.20;6.90;;;;;;;18.29;100.00;98663.91;4485202;32;20562;-64
2023/07/04 02:44:58;;;;;;;17.37;7.37;;;;;;;18.29;100.00;98680.66;4483304;32;20116;-64
2023/07/04 02:47:26;;;;;;;25.35;7.87;;;;;;;18.17;100.00;98676.84;4485331;32;20114;-64
2023/07/04 02:49:55;;;;;;;12.37;7.10;;;;;;;18.08;100.00;98689.41;4485450;31;20093;-64
2023/07/04 02:52:24;;;;;;;13.75;6.80;;;;;;;17.96;100.00;98691.72;4485241;32;20112;-64
2023/07/04 02:54:52;;;;;;;17.05;7.85;;;;;;;17.76;100.00;98687.97;4485128;31;20104;-64
2023/07/04 02:57:19;;;;;;;16.60;7.15;;;;;;;17.61;100.00;98688.00;4485079;31;20165;-64
2023/07/04 02:59:46;;;;;;;12.77;6.43;;;;;;;17.48;100.00;98693.94;4485339;31;20499;-64
2023/07/04 03:02:14;;;;;;;12.82;6.47;;;;;;;17.43;100.00;98691.84;4483682;32;20374;-64
2023/07/04 03:04:43;;;;;;;13.20;6.65;;;;;;;17.50;100.00;98692.78;4485447;31;20104;-64
2023/07/04 03:07:11;;;;;;;24.02;7.15;;;;;;;17.46;100.00;98691.47;4484806;31;20552;-64
2023/07/04 03:09:38;;;;;;;20.67;7.25;;;;;;;17.37;100.00;98689.94;4485340;31;20112;-64
2023/07/04 03:12:06;;;;;;;15.48;6.43;;;;;;;17.29;100.00;98685.56;4484991;31;20133;-64
2023/07/04 03:14:33;;;;;;;12.30;6.53;;;;;;;17.25;100.00;98686.09;4484987;31;20100;-64
2023/07/04 03:17:01;;;;;;;19.50;7.32;;;;;;;17.26;100.00;98674.50;4484857;32;20118;-65
2023/07/04 03:19:28;;;;;;;16.45;7.10;;;;;;;17.27;100.00;98671.66;4484763;32;20092;-65
2023/07/04 03:21:55;;;;;;;12.63;6.68;;;;;;;17.29;100.00;98668.84;4484914;32;20113;-65
2023/07/04 03:24:23;;;;;;;16.90;6.90;;;;;;;17.33;100.00;98670.13;4485208;32;20167;-65
2023/07/04 03:26:50;;;;;;;13.25;6.80;;;;;;;17.32;100.00;98658.72;4484936;31;20116;-65
2023/07/04 03:29:18;;;;;;;10.63;5.78;;;;;;;17.34;100.00;98661.19;4484873;31;20097;-65
2023/07/04 03:31:46;;;;;;;16.12;6.87;;;;;;;17.40;100.00;98655.16;4484771;31;20511;-65
2023/07/04 03:34:13;;;;;;;15.15;7.20;;;;;;;17.33;100.00;98654.22;4484772;31;20160;-66
2023/07/04 03:36:40;;;;;;;12.05;6.47;;;;;;;17.35;100.00;98653.06;4485148;31;20084;-66
2023/07/04 03:39:08;;;;;;;14.13;6.40;;;;;;;17.37;100.00;98655.50;4484507;32;20573;-66
2023/07/04 03:41:36;;;;;;;14.65;6.70;;;;;;;17.34;100.00;98653.22;4484626;31;20101;-66
2023/07/04 03:44:04;;;;;;;20.80;6.85;;;;;;;17.45;100.00;98646.66;4484856;32;20101;-66
2023/07/04 03:46:31;;;;;;;13.20;6.15;;;;;;;17.47;100.00;98650.75;4484544;31;20104;-66
2023/07/04 03:48:58;;;;;;;11.48;5.70;;;;;;;17.46;100.00;98657.06;4484403;32;20462;-66
2023/07/04 03:51:25;;;;;;;12.98;6.22;;;;;;;17.38;100.00;98662.44;4484377;32;20105;-66
2023/07/04 03:53:52;;;;;;;12.13;5.82;;;;;;;17.50;100.00;98660.16;4484521;31;20446;-66
2023/07/04 03:56:20;;;;;;;10.88;5.18;;;;;;;17.48;100.00;98662.16;4485926;31;20412;-67
2023/07/04 03:58:47;;;;;;;10.57;6.05;;;;;;;17.62;100.00;98665.78;4489853;31;20118;-67
2023/07/04 04:01:16;;;;;;;12.02;6.10;;;;;;;17.85;100.00;98668.31;4491653;31;20096;-67
2023/07/04 04:03:44;;;;;;;13.27;6.05;;;;;;;17.79;100.00;98663.75;4490438;31;20448;-67
2023/07/04 04:06:12;;;;;;;15.70;6.93;;;;;;;17.74;100.00;98654.56;4495395;31;20104;-67
2023/07/04 04:08:39;;;;;;;13.90;6.85;;;;;;;17.78;100.00;98654.19;4497186;31;20107;-66
2023/07/04 04:11:06;;;;;;;15.57;6.82;;;;;;;17.79;100.00;98648.69;4490557;31;20443;-67
2023/07/04 04:13:33;;;;;;;16.37;6.97;;;;;;;17.83;100.00;98663.19;4491655;31;20123;-66
2023/07/04 04:16:00;;;;;;;11.98;6.57;;;;;;;17.86;100.00;98657.50;4489291;31;20108;-66
2023/07/04 04:18:28;;;;;;;14.45;6.95;;;;;;;17.80;100.00;98657.44;4489361;31;20100;-67
2023/07/04 04:20:56;;;;;;;14.93;7.07;;;;;;;17.85;100.00;98653.25;4497151;31;20401;-67
2023/07/04 04:23:23;;;;;;;12.52;6.97;;;;;;;17.98;100.00;98651.78;4501229;31;20112;-67
2023/07/04 04:25:51;;;;;;;12.82;6.12;;;;;;;17.99;100.00;98659.53;4489261;31;20112;-67
2023/07/04 04:28:18;;;;;;;15.30;6.40;;;;;;;17.90;100.00;98650.88;4496562;31;20092;-67
2023/07/04 04:30:47;;;;;;;13.10;7.15;;;;;;;17.89;100.00;98646.56;4490413;31;20521;-66
2023/07/04 04:33:16;;;;;;;17.20;7.22;;;;;;;17.88;100.00;98646.72;4489832;31;20233;-67
2023/07/04 04:35:45;;;;;;;11.85;6.28;;;;;;;17.94;100.00;98645.19;4499548;31;20096;-67
2023/07/04 04:38:12;;;;;;;11.82;6.72;;;;;;;17.78;100.00;98640.94;4498629;31;20421;-67
2023/07/04 04:40:43;;;;;;;12.25;6.32;;;;;;;17.78;100.00;98641.75;4489197;31;20107;-66
2023/07/04 04:43:11;;;;;;;13.68;6.60;;;;;;;17.66;100.00;98649.34;4489917;31;20462;-67
2023/07/04 04:45:38;;;;;;;10.95;5.68;;;;;;;17.89;100.00;98664.31;4489252;31;20437;-67
2023/07/04 04:48:06;;;;;;;12.52;6.70;;;;;;;18.14;100.00;98675.41;4489329;31;20217;-67
2023/07/04 04:50:35;;;;;;;11.20;5.90;;;;;;;18.21;100.00;98673.66;4497711;31;20083;-67
2023/07/04 04:53:02;;;;;;;21.52;11.68;;;;;;;18.41;100.00;98670.34;4488984;31;20119;-67
2023/07/04 04:55:31;;;;;;;12.95;6.68;;;;;;;18.42;100.00;98667.50;4489018;31;20100;-67
2023/07/04 04:57:58;;;;;;;13.45;6.03;;;;;;;18.53;100.00;98670.66;4488959;31;20127;-67
2023/07/04 05:00:25;;;;;;;10.90;5.90;;;;;;;18.41;100.00;98668.53;4496434;31;20172;-67
2023/07/04 05:02:56;;;;;;;13.00;6.47;;;;;;;18.33;100.00;98681.09;4504629;31;20160;-67
2023/07/04 05:05:23;;;;;;;11.07;5.72;;;;;;;18.25;100.00;98680.19;4496759;31;20108;-67
2023/07/04 05:07:51;;;;;;;11.68;5.82;;;;;;;18.44;100.00;98678.75;4491111;31;20100;-67
2023/07/04 05:10:18;;;;;;;11.57;5.80;;;;;;;18.40;100.00;98674.03;4488830;31;20126;-67
2023/07/04 05:12:46;;;;;;;12.82;6.18;;;;;;;18.50;100.00;98673.69;4485808;31;20547;-67
2023/07/04 05:15:13;;;;;;;14.63;7.22;;;;;;;18.74;100.00;98678.59;4490443;31;20116;-67
2023/07/04 05:17:41;;;;;;;9.88;5.78;;;;;;;18.88;100.00;98681.38;4501336;31;20118;-67
2023/07/04 05:20:13;;;;;;;11.02;6.43;;;;;;;18.92;100.00;98688.75;4485796;31;20119;-67
2023/07/04 05:22:42;;;;;;;10.70;5.82;;;;;;;19.05;100.00;98696.00;4493288;31;20104;-67
2023/07/04 05:25:10;;;;;;;11.52;5.65;;;;;;;19.12;100.00;98696.88;4496666;31;20164;-67
2023/07/04 05:27:38;;;;;;;13.77;5.62;;;;;;;19.31;100.00;98699.84;4488582;31;20096;-67
2023/07/04 05:30:06;;;;;;;11.05;5.03;;;;;;;19.28;100.00;98705.56;4489614;31;20120;-67
2023/07/04 05:32:44;;;;;;;10.95;5.20;;;;;;;19.23;100.00;98703.47;4495116;31;20519;-67
2023/07/04 05:35:11;;;;;;;9.07;4.62;;;;;;;19.21;100.00;98720.63;4489047;31;20473;-67
2023/07/04 05:37:39;;;;;;;9.15;5.72;;;;;;;19.24;100.00;98723.72;4485624;31;20084;-67
2023/07/04 05:40:09;;;;;;;12.55;6.55;;;;;;;19.07;100.00;98719.72;4486730;31;20123;-67
2023/07/04 05:42:36;;;;;;;9.95;5.95;;;;;;;18.82;100.00;98717.44;4490231;31;20080;-67
2023/07/04 05:45:04;;;;;;;11.80;5.70;;;;;;;18.77;100.00;98714.53;4497019;31;20465;-67
2023/07/04 05:47:32;;;;;;;11.10;6.07;;;;;;;18.71;100.00;98712.66;4496632;31;20481;-67
2023/07/04 05:50:00;;;;;;;13.13;6.78;;;;;;;18.63;100.00;98717.06;4487989;31;20108;-67
2023/07/04 05:52:31;;;;;;;9.48;5.95;;;;;;;18.68;100.00;98721.00;4493940;31;20134;-67
2023/07/04 05:55:00;;;;;;;11.90;5.68;;;;;;;18.60;100.00;98725.41;4499827;31;20143;-67
2023/07/04 05:57:31;;;;;;;11.80;5.82;;;;;;;18.57;100.00;98730.28;4487784;31;20088;-67
2023/07/04 05:59:59;;;;;;;10.45;5.85;;;;;;;18.47;100.00;98727.97;4484964;31;20150;-67
2023/07/04 06:02:26;;;;;;;12.60;5.53;;;;;;;18.54;100.00;98722.69;4493088;31;20495;-67
2023/07/04 06:04:54;;;;;;;8.82;4.78;;;;;;;18.74;100.00;98728.19;4490055;31;20122;-66
2023/07/04 06:07:22;;;;;;;10.55;5.45;;;;;;;18.48;100.00;98734.88;4478511;31;20094;-66
2023/07/04 06:09:51;;;;;;;11.02;5.37;;;;;;;18.29;100.00;98733.69;4480840;31;20135;-67
2023/07/04 06:12:19;;;;;;;10.30;4.75;;;;;;;18.42;100.00;98735.66;4476587;32;20120;-66
2023/07/04 06:14:48;;;;;;;11.55;4.72;;;;;;;18.42;100.00;98733.00;4481256;31;20108;-66
2023/07/04 06:17:15;;;;;;;7.78;5.05;;;;;;;18.46;100.00;98734.25;4482126;31;20100;-66
2023/07/04 06:19:43;;;;;;;9.77;4.87;;;;;;;18.55;100.00;98734.97;4480207;31;20139;-66
2023/07/04 06:22:10;;;;;;;11.68;4.80;;;;;;;18.53;100.00;98732.50;4482082;31;20092;-66
2023/07/04 06:24:37;;;;;;;10.30;5.12;;;;;;;18.60;100.00;98733.38;4483111;31;20100;-66
2023/07/04 06:27:05;;;;;;;8.00;4.75;;;;;;;18.63;100.00;98732.19;4482426;31;20100;-66
2023/07/04 06:29:33;;;;;;;11.43;4.95;;;;;;;18.54;100.00;98728.00;4483572;31;20088;-66
2023/07/04 06:32:01;;;;;;;12.82;5.80;;;;;;;18.52;100.00;98733.50;4482551;31;20147;-66
2023/07/04 06:34:29;;;;;;;8.07;4.65;;;;;;;18.50;100.00;98737.34;4481247;31;20564;-66
2023/07/04 06:36:57;;;;;;;12.48;5.40;;;;;;;18.67;100.00;98741.41;4481571;31;20123;-66
2023/07/04 06:39:25;;;;;;;10.55;4.80;;;;;;;19.00;100.00;98740.06;4476738;31;20092;-66
2023/07/04 06:41:52;;;;;;;9.68;4.93;;;;;;;19.31;100.00;98739.69;4480645;31;20124;-66
2023/07/04 06:44:20;;;;;;;6.93;4.72;;;;;;;19.53;100.00;98740.44;4478684;31;20096;-66
2023/07/04 06:46:48;;;;;;;8.43;5.05;;;;;;;19.59;100.00;98744.13;4478393;31;20462;-66
2023/07/04 06:49:15;;;;;;;11.90;5.07;;;;;;;19.83;100.00;98734.88;4481383;31;20100;-66
2023/07/04 06:51:43;;;;;;;8.27;5.55;;;;;;;19.96;100.00;98739.44;4482447;31;20096;-66
2023/07/04 06:54:11;;;;;;;7.80;4.32;;;;;;;20.21;100.00;98747.69;4482370;31;20115;-66
2023/07/04 06:56:40;;;;;;;8.50;5.05;;;;;;;20.28;100.00;98747.75;4482606;31;20108;-66
2023/07/04 06:59:08;;;;;;;15.98;5.60;;;;;;;20.45;100.00;98750.84;4483511;31;20119;-66
2023/07/04 07:01:38;;;;;;;8.52;5.70;;;;;;;20.70;100.00;98757.25;4482450;31;20127;-66
2023/07/04 07:04:06;;;;;;;8.18;4.75;;;;;;;20.78;100.00;98747.44;4471403;31;20123;-66
2023/07/04 07:06:34;;;;;;;11.38;4.70;;;;;;;20.99;100.00;98741.09;4474057;31;20088;-66
2023/07/04 07:09:05;;;;;;;7.80;4.78;;;;;;;21.26;100.00;98733.91;4479501;31;20454;-66
2023/07/04 07:11:33;;;;;;;7.90;4.53;;;;;;;21.43;100.00;98739.62;4480396;31;20119;-65
2023/07/04 07:14:01;;;;;;;8.32;4.32;;;;;;;21.58;100.00;98737.56;4476893;31;20535;-66
2023/07/04 07:16:28;;;;;;;8.70;4.82;;;;;;;21.43;100.00;98735.09;4479081;31;20145;-66
2023/07/04 07:18:56;;;;;;;10.23;4.57;;;;;;;21.33;100.00;98739.22;4478362;32;20155;-66
2023/07/04 07:21:25;;;;;;;9.77;5.12;;;;;;;21.37;100.00;98741.25;4479257;31;20127;-66
2023/07/04 07:23:54;;;;;;;11.60;5.15;;;;;;;21.34;100.00;98736.34;4479300;31;20153;-66
2023/07/04 07:26:25;;;;;;;9.10;5.25;;;;;;;21.29;100.00;98733.50;4479136;31;20093;-66
2023/07/04 07:28:54;;;;;;;7.05;4.93;;;;;;;21.24;100.00;98730.63;4479727;31;20092;-66
2023/07/04 07:31:25;;;;;;;10.10;5.12;;;;;;;21.24;100.00;98730.63;4479455;31;20633;-66
2023/07/04 07:34:01;;;;;;;8.27;4.90;;;;;;;21.21;100.00;98733.69;4477816;31;20122;-66
2023/07/04 07:36:38;;;;;;;8.93;4.97;;;;;;;21.24;100.00;98730.63;4477779;31;20159;-66
2023/07/04 07:39:08;;;;;;;9.02;4.68;;;;;;;21.35;100.00;98732.66;4478947;31;20477;-66
2023/07/04 07:41:39;;;;;;;7.50;4.75;;;;;;;21.14;100.00;98733.72;4478386;31;20118;-66
2023/07/04 07:44:08;;;;;;;8.35;5.18;;;;;;;21.36;100.00;98736.97;4477203;31;20145;-66
2023/07/04 07:46:36;;;;;;;11.32;5.78;;;;;;;21.51;100.00;98735.94;4481071;31;20217;-66
2023/07/04 07:49:03;;;;;;;13.13;6.53;;;;;;;21.52;100.00;98743.72;4479864;31;20152;-66
2023/07/04 07:51:31;;;;;;;11.70;6.05;;;;;;;21.54;100.00;98747.00;4479430;31;20176;-66
2023/07/04 07:54:00;;;;;;;11.43;6.18;;;;;;;21.44;100.00;98746.59;4475235;31;20084;-66
2023/07/04 07:56:32;;;;;;;10.70;6.20;;;;;;;21.21;100.00;98757.69;4474585;31;20184;-66
2023/07/04 07:59:00;;;;;;;15.57;6.22;;;;;;;21.01;100.00;98755.84;4482600;31;20280;-65
2023/07/04 08:01:31;;;;;;;12.07;6.10;;;;;;;20.89;100.00;98766.31;4482752;31;20119;-66
2023/07/04 08:03:58;;;;;;;10.75;5.62;;;;;;;20.80;100.00;98769.34;4481069;31;20443;-66
2023/07/04 08:06:37;;;;;;;12.63;6.62;;;;;;;20.93;100.00;98769.38;4478437;31;20511;-66
2023/07/04 08:09:08;;;;;;;10.73;6.00;;;;;;;20.98;100.00;98768.75;4481320;31;20478;-66
2023/07/04 08:11:36;;;;;;;9.35;5.55;;;;;;;21.05;100.00;98777.56;4483346;31;20134;-66
2023/07/04 08:14:04;;;;;;;10.98;5.90;;;;;;;20.99;100.00;98776.53;4481509;31;20100;-65
2023/07/04 08:16:44;;;;;;;11.63;6.15;;;;;;;21.01;100.00;98777.16;4482188;31;20142;-66
2023/07/04 08:19:13;;;;;;;10.25;5.82;;;;;;;21.26;100.00;98782.69;4483314;31;20116;-66
2023/07/04 08:21:40;;;;;;;8.85;5.70;;;;;;;21.41;100.00;98785.12;4481119;31;20113;-65
2023/07/04 08:24:12;;;;;;;12.00;5.93;;;;;;;21.41;100.00;98779.81;4482026;31;20116;-65
2023/07/04 08:26:41;;;;;;;12.52;6.10;;;;;;;21.75;100.00;98780.56;4481417;31;20123;-66
2023/07/04 08:29:10;;;;;;;11.25;5.60;;;;;;;21.92;100.00;98772.13;4480671;31;20363;-66
2023/07/04 08:31:37;;;;;;;12.43;6.30;;;;;;;22.08;100.00;98774.31;4478590;31;20104;-66
2023/07/04 08:34:05;;;;;;;11.10;6.00;;;;;;;22.12;100.00;98772.88;4481769;31;20100;-66
2023/07/04 08:36:33;;;;;;;9.20;5.70;;;;;;;22.13;100.00;98765.66;4481031;31;20138;-66
2023/07/04 08:39:00;;;;;;;10.23;5.90;;;;;;;22.33;100.00;98765.59;4482371;31;20586;-65
2023/07/04 08:41:44;;;;;;;11.30;6.15;;;;;;;22.50;100.00;98766.75;4482265;31;20096;-66
2023/07/04 08:44:19;;;;;;;10.65;5.60;;;;;;;22.59;100.00;98763.81;4484396;31;20401;-66
2023/07/04 08:46:51;;;;;;;9.60;4.65;;;;;;;22.18;100.00;98762.38;4477480;31;20092;-66
2023/07/04 08:49:39;;;;;;;11.35;4.80;;;;;;;21.94;100.00;98764.75;4483575;31;20080;-66
2023/07/04 08:52:31;;;;;;;9.20;5.72;;;;;;;22.20;100.00;98773.66;4484347;31;20097;-66
2023/07/04 08:54:58;;;;;;;9.40;5.20;;;;;;;22.20;100.00;98766.47;4484157;31;20160;-66
2023/07/04 08:57:40;;;;;;;11.07;5.40;;;;;;;22.18;100.00;98773.03;4471396;31;20087;-66
2023/07/04 09:00:13;;;;;;;8.45;5.43;;;;;;;22.42;100.00;98769.69;4483595;31;20088;-65
2023/07/04 09:02:42;;;;;;;10.40;6.15;;;;;;;22.65;100.00;98765.63;4480842;31;20123;-65
2023/07/04 09:05:16;;;;;;;10.00;5.25;;;;;;;22.52;100.00;98771.06;4483746;31;20104;-66
2023/07/04 09:08:01;;;;;;;10.68;5.93;;;;;;;22.36;100.00;98769.69;4483330;31;20509;-65
2023/07/04 09:10:38;;;;;;;9.63;5.10;;;;;;;22.42;100.00;98764.34;4480444;31;20092;-66
2023/07/04 09:13:10;;;;;;;9.38;5.00;;;;;;;22.75;100.00;98779.31;4483907;31;20101;-66
2023/07/04 09:15:44;;;;;;;7.00;4.70;;;;;;;22.95;100.00;98783.69;4480309;32;20150;-65
2023/07/04 09:18:14;;;;;;;13.65;5.25;;;;;;;23.15;100.00;98784.41;4480025;31;20112;-66
2023/07/04 09:20:49;;;;;;;8.48;5.65;;;;;;;23.19;100.00;98780.25;4480894;31;20127;-66
2023/07/04 09:23:22;;;;;;;12.98;6.47;;;;;;;23.23;100.00;98774.47;4478711;31;20112;-66
2023/07/04 09:25:56;;;;;;;10.40;6.00;;;;;;;23.43;100.00;98775.09;4477948;31;20126;-66
2023/07/04 09:28:24;;;;;;;8.88;5.10;;;;;;;23.45;100.00;98782.88;4480345;31;20085;-65
2023/07/04 09:30:56;;;;;;;10.45;6.35;;;;;;;23.31;100.00;98782.19;4481774;32;20104;-65
2023/07/04 09:33:27;;;;;;;8.98;5.25;;;;;;;23.38;100.00;98780.28;4474804;31;20433;-66
2023/07/04 09:35:59;;;;;;;9.10;4.78;;;;;;;23.34;100.00;98784.44;4469601;31;20140;-66
2023/07/04 09:38:54;;;;;;;10.02;5.82;;;;;;;23.32;100.00;98781.19;4480356;31;20100;-65
2023/07/04 09:41:26;;;;;;;9.70;5.53;;;;;;;23.59;100.00;98779.06;4481691;31;20558;-66
2023/07/04 09:43:56;;;;;;;8.00;5.00;;;;;;;23.49;100.00;98774.19;4491801;31;20480;-66
2023/07/04 09:46:30;;;;;;;9.65;4.70;;;;;;;23.64;100.00;98781.06;4486387;31;20092;-66
2023/07/04 09:49:35;;;;;;;8.50;4.78;;;;;;;23.80;100.00;98775.13;4496187;31;20152;-65
2023/07/04 09:52:05;;;;;;;8.38;5.12;;;;;;;24.23;100.00;98779.56;4430670;32;20141;-66
2023/07/04 09:54:37;;;;;;;9.88;4.85;;;;;;;24.38;100.00;98789.06;4435247;32;20114;-66
2023/07/04 09:57:24;;;;;;;8.40;5.05;;;;;;;24.92;100.00;98776.56;4429926;32;20129;-66
2023/07/04 09:59:53;;;;;;;7.50;4.35;;;;;;;25.07;100.00;98777.97;4434312;32;20106;-66
2023/07/04 10:02:24;;;;;;;7.53;4.72;;;;;;;24.93;100.00;98780.84;4435326;32;20117;-65
2023/07/04 10:04:53;;;;;;;6.28;4.37;;;;;;;25.33;100.00;98777.56;4435398;32;20507;-66
2023/07/04 10:07:23;;;;;;;5.30;3.83;;;;;;;25.61;99.00;98770.66;4421109;32;20105;-66
2023/07/04 10:09:56;;;;;;;9.07;4.25;;;;;;;25.63;100.00;98771.25;4435982;32;20608;-65
2023/07/04 10:12:26;;;;;;;5.57;3.12;;;;;;;25.75;96.08;98768.53;4436249;32;20163;-66
2023/07/04 10:14:56;;;;;;;5.32;3.50;;;;;;;25.82;93.89;98769.22;4435717;32;20139;-67
2023/07/04 10:17:32;;;;;;;7.62;2.87;;;;;;;25.51;96.07;98778.47;4434577;32;20101;-66
2023/07/04 10:20:05;;;;;;;4.65;3.10;;;;;;;25.78;93.07;98761.88;4435008;32;20224;-66
2023/07/04 10:22:38;;;;;;;4.55;3.22;;;;;;;26.17;88.13;98760.28;4420473;32;20093;-66
2023/07/04 10:25:15;;;;;;;4.32;3.00;;;;;;;25.34;90.45;98767.63;4435024;32;20467;-66
2023/07/04 10:27:57;;;;;;;4.28;2.80;;;;;;;25.42;92.92;98761.09;4456599;32;20146;-66
2023/07/04 10:30:31;;;;;;;6.28;3.22;;;;;;;25.80;88.32;98768.66;4483673;32;20140;-66
2023/07/04 10:33:04;;;;;;;7.55;3.72;;;;;;;26.03;88.49;98759.75;4484259;32;20076;-67
2023/07/04 10:35:35;;;;;;;4.25;3.10;;;;;;;26.49;89.44;98758.97;4479533;31;22256;-67
2023/07/04 10:38:12;;;;;;;5.70;3.45;;;;;;;26.26;87.25;98752.66;4480027;31;20096;-67
2023/07/04 10:40:41;;;;;;;4.57;2.87;;;;;;;25.92;89.34;98757.91;4499914;31;20121;-68
2023/07/04 10:43:23;;;;;;;11.30;3.60;;;;;;;26.07;91.83;98753.91;4489081;31;20087;-67
2023/07/04 10:45:53;;;;;;;4.72;3.33;;;;;;;26.31;89.61;98757.31;4494647;31;20097;-67
2023/07/04 10:48:31;;;;;;;7.20;3.10;;;;;;;26.08;87.05;98760.91;4480722;31;20092;-67
2023/07/04 10:51:00;;;;;;;7.22;3.87;;;;;;;26.31;86.01;98758.13;4475701;32;20408;-68
2023/07/04 10:53:28;;;;;;;3.50;2.50;;;;;;;26.52;88.15;98755.81;4477125;32;20191;-64
2023/07/04 10:56:04;;;;;;;3.90;2.87;;;;;;;26.59;84.04;98755.66;4484429;31;20123;-66
2023/07/04 10:58:38;;;;;;;5.12;2.70;;;;;;;26.81;80.75;98751.22;4474987;31;20164;-67
2023/07/04 11:01:17;;;;;;;4.18;2.37;;;;;;;26.69;81.88;98745.94;4476289;32;20834;-66
2023/07/04 11:03:51;;;;;;;6.37;2.95;;;;;;;26.65;78.25;98749.31;4481143;31;20168;-66
2023/07/04 11:06:29;;;;;;;3.92;2.33;;;;;;;27.13;84.57;98756.00;4475067;31;20108;-67
2023/07/04 11:08:57;;;;;;;3.75;2.58;;;;;;;27.15;76.63;98758.50;4483187;32;20088;-66
2023/07/04 11:11:29;;;;;;;4.93;2.90;;;;;;;27.14;76.00;98752.28;4483278;32;20089;-67
2023/07/04 11:14:01;;;;;;;6.43;3.05;;;;;;;26.87;75.55;98752.13;4484597;31;20108;-67
2023/07/04 11:16:31;;;;;;;5.65;2.55;;;;;;;27.20;78.08;98748.59;4477022;32;20104;-67
2023/07/04 11:19:06;;;;;;;4.78;2.55;;;;;;;27.55;80.17;98752.88;4474796;32;20084;-66
2023/07/04 11:21:53;;;;;;;4.55;2.65;;;;;;;27.34;77.74;98754.47;4484533;31;20134;-67
2023/07/04 11:24:21;;;;;;;4.00;2.50;;;;;;;27.60;72.24;98752.13;4482759;32;20085;-67
2023/07/04 11:27:05;;;;;;;5.95;2.83;;;;;;;27.99;74.14;98745.94;4480717;31;20247;-67
2023/07/04 11:30:03;;;;;;;4.57;3.12;;;;;;;28.46;72.96;98751.56;4480891;31;20115;-67
2023/07/04 11:32:37;;;;;;;5.40;2.92;;;;;;;27.80;75.73;98757.00;4481239;32;20454;-67
2023/07/04 11:35:11;;;;;;;6.20;3.50;;;;;;;27.75;70.79;98748.84;4481385;32;20084;-67
2023/07/04 11:37:38;;;;;;;4.40;2.70;;;;;;;27.63;69.81;98751.63;4482328;31;20100;-68